createdAt,value
2022-09-13T00:02:29.162Z,13.55
2022-09-13T00:10:04.518Z,13.51
2022-09-13T00:17:38.296Z,13.48
2022-09-13T00:25:13.367Z,13.43
2022-09-13T00:32:46.911Z,13.35
2022-09-13T00:40:22.692Z,13.25
2022-09-13T00:48:00.445Z,13.22
2022-09-13T00:55:40.264Z,13.18
2022-09-13T01:03:15.971Z,13.14
2022-09-13T01:10:53.173Z,13.11
2022-09-13T01:18:27.150Z,13.09
2022-09-13T01:26:26.958Z,13.03
2022-09-13T01:34:15.297Z,12.98
2022-09-13T01:42:01.594Z,12.97
2022-09-13T01:49:47.041Z,12.86
2022-09-13T01:57:27.446Z,12.83
2022-09-13T02:05:06.731Z,12.77
2022-09-13T02:12:43.075Z,12.71
2022-09-13T02:20:22.636Z,12.69
2022-09-13T02:28:04.432Z,12.64
2022-09-13T02:35:46.852Z,12.58
2022-09-13T02:43:24.081Z,12.52
2022-09-13T02:51:04.791Z,12.50
2022-09-13T02:58:46.911Z,12.48
2022-09-13T03:06:26.482Z,12.46
2022-09-13T03:14:19.094Z,12.39
2022-09-13T03:22:09.629Z,12.38
2022-09-13T03:29:52.238Z,12.39
2022-09-13T03:37:34.072Z,12.39
2022-09-13T03:45:10.539Z,12.37
2022-09-13T03:52:48.440Z,12.38
2022-09-13T04:00:22.716Z,12.37
2022-09-13T04:07:57.818Z,12.38
2022-09-13T04:15:31.962Z,12.42
2022-09-13T04:23:07.242Z,12.46
2022-09-13T04:30:42.813Z,12.40
2022-09-13T04:38:17.854Z,12.41
2022-09-13T04:45:51.520Z,12.45
2022-09-13T04:53:26.637Z,12.48
2022-09-13T05:01:03.151Z,12.51
2022-09-13T05:08:38.989Z,12.59
2022-09-13T05:16:12.755Z,12.65
2022-09-13T05:23:50.172Z,12.75
2022-09-13T05:31:26.055Z,12.83
2022-09-13T05:39:28.449Z,12.93
2022-09-13T05:46:55.169Z,13.02
2022-09-13T05:54:30.438Z,13.09
2022-09-13T06:02:04.247Z,13.12
2022-09-13T06:09:39.415Z,13.21
2022-09-13T06:17:13.188Z,13.28
2022-09-13T06:24:48.419Z,13.29
2022-09-13T06:32:22.487Z,13.29
2022-09-13T06:39:57.725Z,13.36
2022-09-13T06:47:31.701Z,13.39
2022-09-13T06:55:10.836Z,13.42
2022-09-13T07:02:51.352Z,13.52
2022-09-13T07:10:26.424Z,13.68
2022-09-13T07:18:00.034Z,13.79
2022-09-13T07:25:34.981Z,13.89
2022-09-13T07:33:08.711Z,14.04
2022-09-13T07:40:44.048Z,14.18
2022-09-13T07:48:17.842Z,14.28
2022-09-13T07:55:52.952Z,14.44
2022-09-13T08:03:26.691Z,14.59
2022-09-13T08:11:02.811Z,14.68
2022-09-13T08:18:36.468Z,14.83
2022-09-13T08:26:11.948Z,14.91
2022-09-13T08:33:47.425Z,15.06
2022-09-13T08:41:56.336Z,15.19
2022-09-13T08:49:35.651Z,15.44
2022-09-13T08:57:18.723Z,15.95
2022-09-13T09:04:57.809Z,16.14
2022-09-13T09:12:40.500Z,16.32
2022-09-13T09:20:24.981Z,16.87
2022-09-13T09:28:00.871Z,17.06
2022-09-13T09:35:50.986Z,17.25
2022-09-13T09:43:33.431Z,17.47
2022-09-13T09:51:10.402Z,17.70
2022-09-13T09:58:47.643Z,18.08
2022-09-13T10:06:24.250Z,18.40
2022-09-13T10:14:02.790Z,18.73
2022-09-13T10:21:36.514Z,18.89
2022-09-13T10:29:17.657Z,19.00
2022-09-13T10:36:57.080Z,19.09
2022-09-13T10:44:35.441Z,19.22
2022-09-13T10:52:33.394Z,19.35
2022-09-13T11:00:12.328Z,19.38
2022-09-13T11:08:07.416Z,19.17
2022-09-13T11:15:59.790Z,18.95
2022-09-13T11:24:19.165Z,18.76
2022-09-13T11:32:05.766Z,18.67
2022-09-13T11:39:43.399Z,18.61
2022-09-13T11:47:31.630Z,18.54
2022-09-13T11:55:16.563Z,18.46
2022-09-13T12:03:01.603Z,18.48
2022-09-13T12:10:40.603Z,18.49
2022-09-13T12:18:21.223Z,18.54
2022-09-13T12:26:00.385Z,18.49
2022-09-13T12:33:39.523Z,18.52
2022-09-13T12:41:28.386Z,18.49
2022-09-13T12:49:32.550Z,18.62
2022-09-13T12:57:19.422Z,18.62
2022-09-13T13:04:59.743Z,18.66
2022-09-13T13:12:35.754Z,18.69
2022-09-13T13:20:49.330Z,18.78
2022-09-13T13:29:06.334Z,18.79
2022-09-13T13:36:49.099Z,18.81
2022-09-13T13:45:05.408Z,18.87
2022-09-13T13:52:41.372Z,18.98
2022-09-13T14:00:17.761Z,19.06
2022-09-13T14:08:17.766Z,19.14
2022-09-13T14:16:02.695Z,19.23
2022-09-13T14:23:37.861Z,19.33
2022-09-13T14:31:19.905Z,19.35
2022-09-13T14:38:59.966Z,19.38
2022-09-13T14:46:38.885Z,19.41
2022-09-13T14:54:20.453Z,19.45
2022-09-13T15:01:54.464Z,19.56
2022-09-13T15:09:29.881Z,19.64
2022-09-13T15:17:10.087Z,19.98
2022-09-13T15:24:48.741Z,20.00
2022-09-13T15:32:25.941Z,20.12
2022-09-13T15:40:21.775Z,20.42
2022-09-13T15:47:55.542Z,20.66
2022-09-13T15:55:35.590Z,20.31
2022-09-13T16:03:10.107Z,20.17
2022-09-13T16:10:45.594Z,20.17
2022-09-13T16:18:19.348Z,20.14
2022-09-13T16:25:57.716Z,19.99
2022-09-13T16:33:32.070Z,19.89
2022-09-13T16:41:08.118Z,19.72
2022-09-13T16:48:42.127Z,19.52
2022-09-13T16:56:23.772Z,19.38
2022-09-13T17:03:58.130Z,19.27
2022-09-13T17:11:35.075Z,19.14
2022-09-13T17:19:12.465Z,18.99
2022-09-13T17:26:47.668Z,18.89
2022-09-13T17:34:21.562Z,18.81
2022-09-13T17:41:56.659Z,18.66
2022-09-13T17:49:30.448Z,18.50
2022-09-13T17:57:06.092Z,18.34
2022-09-13T18:04:39.792Z,18.15
2022-09-13T18:12:16.874Z,17.98
2022-09-13T18:19:50.566Z,17.85
2022-09-13T18:27:25.710Z,17.78
2022-09-13T18:34:59.580Z,17.70
2022-09-13T18:42:34.669Z,17.53
2022-09-13T18:50:11.680Z,17.39
2022-09-13T18:57:47.201Z,17.30
2022-09-13T19:05:20.939Z,17.12
2022-09-13T19:12:55.996Z,17.03
2022-09-13T19:20:29.554Z,16.94
2022-09-13T19:28:06.647Z,16.86
2022-09-13T19:35:40.636Z,16.74
2022-09-13T19:43:16.195Z,16.69
2022-09-13T19:50:50.213Z,16.60
2022-09-13T19:58:25.501Z,16.52
2022-09-13T20:06:03.155Z,16.44
2022-09-13T20:13:38.666Z,16.37
2022-09-13T20:21:12.396Z,16.26
2022-09-13T20:28:48.381Z,16.20
2022-09-13T20:36:22.575Z,16.08
2022-09-13T20:43:59.601Z,15.98
2022-09-13T20:51:34.776Z,15.92
2022-09-13T20:59:11.122Z,15.87
2022-09-13T21:06:58.699Z,15.79
2022-09-13T21:14:34.007Z,15.66
2022-09-13T21:22:08.046Z,15.66
2022-09-13T21:29:43.342Z,15.59
2022-09-13T21:37:17.039Z,15.57
2022-09-13T21:44:52.148Z,15.54
2022-09-13T21:52:26.077Z,15.47
2022-09-13T22:00:01.166Z,15.37
2022-09-13T22:07:34.655Z,15.32
2022-09-13T22:15:10.936Z,15.24
2022-09-13T22:22:45.765Z,15.14
2022-09-13T22:30:20.898Z,15.04
2022-09-13T22:37:54.587Z,14.93
2022-09-13T22:45:29.647Z,14.85
2022-09-13T22:53:03.167Z,14.72
2022-09-13T23:00:38.725Z,14.64
2022-09-13T23:08:12.537Z,14.55
2022-09-13T23:15:47.703Z,14.49
2022-09-13T23:23:21.524Z,14.36
2022-09-13T23:30:56.801Z,14.29
2022-09-13T23:38:30.723Z,14.20
2022-09-13T23:46:06.385Z,14.15
2022-09-13T23:53:40.353Z,14.09
